To NAV CANADA Home Page Login to a new session Search on AWWS site Feedback and Comments Disclaimer Vers la page française équivalente Tips FAQ What's new on the site To the Forecasts and Observations / NOTAM section To "File a Flight Plan" website Publications and other links Update of the User's profile FIC Telephone Numbers My Weather Data Folder Route Weather Data Regional Weather Data Local Weather Data To the Forecasts and Observations / NOTAM section
Request Generated 04/30/2017 at 05:11:26 UTC . Weather information available at that time is displayed.

METAR/TAF

MONTREAL/ST-HUBERT/QC    (show WxCam)

METAR CYHU 300500Z AUTO 34007KT 9SM CLR 04/M04 A3027 RMK SLP253=
METAR CYHU 300400Z AUTO 36008KT 9SM CLR 05/M04 A3024 RMK SLP242=
METAR CYHU 300300Z AUTO 34013G18KT 9SM CLR 06/M04 A3022 RMK SLP234=

TAF CYHU 292339Z 3000/3024 31015G26KT P6SM FEW070 FEW250
BECMG 3000/3002 32012G22KT
FM300600 34008KT P6SM FEW050
BECMG 3008/3010 02006KT
FM301400 04008KT P6SM OVC120
FM302000 06006KT P6SM -SHRA OVC070
RMK FCST BASED ON AUTO OBS. NXT FCST BY 300600Z=
Your time UTC time
Weather data provided by Environment Canada and NAV CANADA